Time;durP1;ratioP1;P1;durP2;ratioP2;P2;SDS_P1;SDS_P2;PMS_P1;PMS_P2;Temp;Humidity;BMP_temperature;BMP_pressure;BME280_temperature;BME280_humidity;BME280_pressure;Samples;Min_cycle;Max_cycle;Signal;HPM_P1;HPM_P2
2023/10/07 00:01:00;;;;;;;4.90;1.50;;;20.30;99.90;;;;;;4994846;28;20183;-70
2023/10/07 00:03:29;;;;;;;5.70;1.10;;;19.80;99.90;;;;;;4994750;28;20698;-69
2023/10/07 00:06:02;;;;;;;2.80;1.20;;;19.30;99.90;;;;;;4994264;28;20218;-69
2023/10/07 00:08:34;;;;;;;3.50;1.10;;;19.90;99.90;;;;;;4994525;28;20185;-69
2023/10/07 00:11:09;;;;;;;2.77;1.27;;;21.10;99.90;;;;;;4977732;28;20191;-70
2023/10/07 00:13:42;;;;;;;5.93;1.67;;;21.60;99.90;;;;;;4994387;28;20185;-69
2023/10/07 00:16:17;;;;;;;6.23;1.70;;;22.30;99.90;;;;;;4994632;28;20187;-70
2023/10/07 00:22:27;;;;;;;8.30;1.30;;;21.90;99.90;;;;;;4994835;28;20668;-70
2023/10/07 00:24:55;;;;;;;8.33;1.43;;;22.50;99.90;;;;;;4994331;28;20644;-70
2023/10/07 00:27:37;;;;;;;3.83;1.30;;;22.90;99.90;;;;;;4994379;28;20678;-70
2023/10/07 00:30:13;;;;;;;5.53;1.27;;;23.30;99.90;;;;;;4994147;28;20218;-69
2023/10/07 00:32:41;;;;;;;4.17;1.50;;;23.60;99.90;;;;;;4993720;28;20203;-69
2023/10/07 00:35:11;;;;;;;5.67;1.20;;;23.70;97.70;;;;;;4994021;28;20175;-70
2023/10/07 00:37:43;;;;;;;4.93;1.33;;;22.80;99.90;;;;;;4993881;28;20632;-70
2023/10/07 00:40:31;;;;;;;2.40;0.90;;;22.20;99.90;;;;;;4993776;28;20178;-70
2023/10/07 00:42:59;;;;;;;3.60;0.97;;;21.50;99.90;;;;;;4993672;28;20201;-69
2023/10/07 00:45:28;;;;;;;2.87;1.00;;;22.40;99.90;;;;;;4992938;28;20175;-70
2023/10/07 00:48:02;;;;;;;2.60;0.90;;;23.50;99.90;;;;;;4993785;28;20178;-69
2023/10/07 00:50:29;;;;;;;5.80;1.07;;;24.50;99.90;;;;;;4993818;28;20179;-70
2023/10/07 00:52:58;;;;;;;1.93;0.80;;;24.40;88.80;;;;;;4993173;28;20187;-70
2023/10/07 00:55:29;;;;;;;5.90;1.00;;;24.60;93.70;;;;;;4993800;28;20178;-70
2023/10/07 00:58:09;;;;;;;4.03;1.00;;;25.10;89.40;;;;;;4993699;28;20178;-69
2023/10/07 01:08:34;;;;;;;3.77;1.20;;;22.50;92.00;;;;;;4993975;28;20270;-69
2023/10/07 01:11:19;;;;;;;3.97;1.00;;;22.80;93.50;;;;;;4976196;28;20275;-69
2023/10/07 01:13:50;;;;;;;3.80;1.10;;;21.70;98.90;;;;;;4993482;28;20194;-70
2023/10/07 01:16:31;;;;;;;4.00;1.23;;;21.20;99.90;;;;;;4993678;28;20229;-70
2023/10/07 01:21:55;;;;;;;2.50;1.20;;;20.70;99.90;;;;;;4993596;28;20776;-70
2023/10/07 01:24:59;;;;;;;3.67;1.30;;;20.60;99.90;;;;;;4993071;28;20252;-69
2023/10/07 01:30:13;;;;;;;4.43;1.90;;;22.10;99.90;;;;;;4993099;28;20178;-69
2023/10/07 01:33:46;;;;;;;4.73;1.50;;;23.00;99.90;;;;;;4976146;28;20199;-70
2023/10/07 01:35:39;;;;;;;4.57;1.23;;;24.00;99.90;;;;;;4972162;28;20187;-69
2023/10/07 01:38:07;;;;;;;3.40;0.93;;;24.20;96.10;;;;;;4993474;28;20601;-70
2023/10/07 01:43:20;;;;;;;6.13;1.43;;;21.90;98.30;;;;;;4993651;28;20227;-69
2023/10/07 01:45:48;;;;;;;4.47;1.43;;;22.70;98.10;;;;;;4992927;28;20210;-70
2023/10/07 01:48:17;;;;;;;3.80;1.47;;;23.40;99.60;;;;;;4993180;28;20197;-70
2023/10/07 01:50:46;;;;;;;10.30;1.73;;;23.60;96.00;;;;;;4993266;28;20194;-69
2023/10/07 01:53:16;;;;;;;6.00;1.43;;;23.80;99.20;;;;;;4993349;28;20193;-70
2023/10/07 01:55:45;;;;;;;3.17;1.13;;;23.90;96.60;;;;;;4993637;28;20636;-70
2023/10/07 01:58:14;;;;;;;5.67;2.00;;;23.20;93.50;;;;;;4996789;28;20186;-70
2023/10/07 02:00:46;;;;;;;4.93;1.40;;;23.40;95.60;;;;;;4996854;28;20174;-70
2023/10/07 02:03:16;;;;;;;4.73;0.73;;;23.20;95.40;;;;;;4996674;28;20196;-70
2023/10/07 02:05:48;;;;;;;2.50;1.00;;;23.60;96.10;;;;;;4979578;28;20284;-70
2023/10/07 02:08:21;;;;;;;3.37;0.87;;;23.90;95.50;;;;;;4996557;28;20186;-70
2023/10/07 02:10:57;;;;;;;2.83;1.07;;;24.20;93.20;;;;;;4996515;28;20652;-70
2023/10/07 02:13:27;;;;;;;2.20;0.87;;;24.60;94.40;;;;;;4996470;28;20187;-70
2023/10/07 02:15:55;;;;;;;2.00;0.90;;;24.90;95.90;;;;;;4996649;28;20182;-70
2023/10/07 02:18:27;;;;;;;3.43;0.90;;;25.00;82.60;;;;;;4996410;28;20183;-70
2023/10/07 02:21:13;;;;;;;3.63;0.87;;;25.00;79.10;;;;;;4996461;28;20194;-70
2023/10/07 02:23:43;;;;;;;1.43;0.90;;;24.70;86.40;;;;;;4996266;28;20644;-69
2023/10/07 02:26:21;;;;;;;2.10;0.80;;;23.20;84.00;;;;;;4996450;28;20202;-70
2023/10/07 02:28:55;;;;;;;2.20;0.90;;;22.10;84.10;;;;;;4996529;28;20182;-70
2023/10/07 02:31:26;;;;;;;2.37;1.20;;;22.50;93.40;;;;;;4995877;28;20245;-70
2023/10/07 02:33:57;;;;;;;2.43;0.83;;;23.60;93.50;;;;;;4978734;28;20528;-70
2023/10/07 02:36:28;;;;;;;2.10;0.70;;;24.40;83.40;;;;;;4996215;28;20213;-70
2023/10/07 02:39:45;;;;;;;2.37;0.80;;;23.70;90.20;;;;;;4995846;28;20175;-70
2023/10/07 02:42:32;;;;;;;1.83;1.00;;;23.00;85.00;;;;;;4996224;28;20269;-69
2023/10/07 02:48:25;;;;;;;2.00;0.90;;;22.50;90.00;;;;;;4995236;28;20225;-69
2023/10/07 02:50:53;;;;;;;2.93;0.80;;;22.70;89.10;;;;;;4995874;28;20181;-69
2023/10/07 02:53:22;;;;;;;2.83;0.73;;;22.60;90.30;;;;;;4995787;28;20227;-70
2023/10/07 02:55:58;;;;;;;3.07;0.90;;;22.60;91.50;;;;;;4995995;28;20213;-71
2023/10/07 02:58:49;;;;;;;6.20;1.27;;;22.40;89.80;;;;;;4995712;28;20189;-70
2023/10/07 03:01:26;;;;;;;4.20;1.00;;;21.80;95.40;;;;;;4995587;28;20608;-70
2023/10/07 03:04:00;;;;;;;2.30;1.10;;;21.70;98.80;;;;;;4995657;28;20245;-69
2023/10/07 03:06:28;;;;;;;2.93;1.20;;;22.20;98.40;;;;;;4995632;28;20229;-70
2023/10/07 03:09:01;;;;;;;5.67;0.97;;;22.80;99.40;;;;;;4976800;28;20641;-69
2023/10/07 03:12:04;;;;;;;3.97;1.10;;;22.90;95.10;;;;;;4995484;28;20186;-70
2023/10/07 03:14:25;;;;;;;2.73;1.00;;;22.30;96.90;;;;;;4990700;28;20194;-70
2023/10/07 03:17:01;;;;;;;5.57;1.37;;;21.80;99.10;;;;;;4995391;28;20240;-70
2023/10/07 03:19:48;;;;;;;4.87;1.30;;;21.50;99.90;;;;;;4995253;28;20182;-69
2023/10/07 03:22:19;;;;;;;4.43;1.10;;;21.30;99.90;;;;;;4995637;28;20195;-69
2023/10/07 03:24:54;;;;;;;3.30;1.37;;;21.20;99.90;;;;;;4977894;28;20667;-69
2023/10/07 03:27:25;;;;;;;3.50;1.23;;;21.00;99.90;;;;;;4994879;28;20226;-69
2023/10/07 03:30:07;;;;;;;5.67;1.40;;;20.90;99.90;;;;;;4977940;28;20723;-70
2023/10/07 03:32:54;;;;;;;9.13;1.70;;;20.80;99.90;;;;;;4995097;28;20200;-70
2023/10/07 03:36:05;;;;;;;4.17;1.70;;;21.10;99.90;;;;;;4994508;28;20193;-71
2023/10/07 03:41:55;;;;;;;11.63;2.10;;;22.40;99.90;;;;;;4994453;28;20228;-69
2023/10/07 03:44:28;;;;;;;8.47;1.50;;;21.50;99.90;;;;;;4994870;28;20726;-69
2023/10/07 03:46:59;;;;;;;7.77;2.00;;;20.90;99.90;;;;;;4994706;28;20229;-69
2023/10/07 03:49:33;;;;;;;9.50;1.80;;;20.50;99.90;;;;;;4977284;28;20189;-70
2023/10/07 03:52:21;;;;;;;8.53;1.80;;;20.70;99.90;;;;;;4994545;28;20201;-71
2023/10/07 03:54:49;;;;;;;4.83;1.20;;;21.00;99.90;;;;;;4980270;28;20261;-69
2023/10/07 03:57:18;;;;;;;5.07;1.40;;;20.70;99.90;;;;;;4994654;28;20190;-69
2023/10/07 03:59:46;;;;;;;7.70;1.43;;;21.00;99.90;;;;;;4994690;28;20178;-70
2023/10/07 04:02:35;;;;;;;2.63;1.40;;;21.90;99.90;;;;;;4961096;28;20194;-68
2023/10/07 04:05:14;;;;;;;7.40;1.50;;;22.10;99.90;;;;;;4994601;28;20170;-70
2023/10/07 04:07:45;;;;;;;7.03;1.70;;;22.30;99.90;;;;;;4994436;28;20268;-70
2023/10/07 04:10:22;;;;;;;6.53;1.63;;;22.20;99.90;;;;;;4994233;28;20193;-68
2023/10/07 04:12:56;;;;;;;8.30;1.30;;;22.40;99.90;;;;;;4994213;28;20193;-69
2023/10/07 04:15:30;;;;;;;4.27;1.57;;;22.50;99.90;;;;;;4994095;28;20185;-69
2023/10/07 04:17:59;;;;;;;4.80;1.47;;;22.60;99.90;;;;;;4994075;28;20202;-69
2023/10/07 04:20:43;;;;;;;5.00;1.60;;;22.50;99.90;;;;;;4993002;28;20208;-70
2023/10/07 04:23:24;;;;;;;6.83;1.50;;;22.30;99.90;;;;;;4994047;28;20224;-70
2023/10/07 04:26:05;;;;;;;4.67;1.57;;;22.10;99.90;;;;;;4978017;28;20209;-68
2023/10/07 04:28:33;;;;;;;5.93;1.33;;;21.40;99.90;;;;;;4994026;28;20186;-68
2023/10/07 04:31:09;;;;;;;6.60;1.73;;;21.00;99.90;;;;;;4993946;28;20223;-70
2023/10/07 04:33:53;;;;;;;5.27;1.80;;;21.30;99.90;;;;;;4977855;28;20184;-70
2023/10/07 04:36:39;;;;;;;7.10;1.73;;;22.10;99.90;;;;;;4993738;28;20652;-68
2023/10/07 04:39:19;;;;;;;5.13;1.50;;;22.30;99.90;;;;;;4978876;28;20195;-69
2023/10/07 04:41:56;;;;;;;5.13;1.63;;;21.50;99.90;;;;;;4976759;28;20179;-69
2023/10/07 04:49:57;;;;;;;3.53;1.13;;;20.50;99.90;;;;;;4994043;28;20221;-71
2023/10/07 04:52:28;;;;;;;9.67;1.40;;;20.50;99.90;;;;;;4976409;28;20198;-68
2023/10/07 04:55:02;;;;;;;8.10;1.40;;;20.50;99.90;;;;;;4993843;28;20667;-68
2023/10/07 05:03:03;;;;;;;3.17;1.07;;;21.60;99.90;;;;;;4993748;28;20658;-70
2023/10/07 05:05:35;;;;;;;6.60;1.20;;;22.00;99.90;;;;;;4975864;28;20213;-68
2023/10/07 05:08:22;;;;;;;3.93;1.03;;;22.40;99.90;;;;;;4993309;28;20222;-68
2023/10/07 05:10:53;;;;;;;5.60;1.13;;;22.40;99.90;;;;;;4993176;28;20209;-70
2023/10/07 05:13:24;;;;;;;10.33;1.53;;;22.10;99.90;;;;;;4993471;28;20563;-68
2023/10/07 05:15:55;;;;;;;5.40;1.10;;;21.80;99.90;;;;;;4976006;28;20182;-69
2023/10/07 05:18:35;;;;;;;3.77;1.20;;;21.40;99.90;;;;;;4992209;28;20632;-69
2023/10/07 05:21:06;;;;;;;3.87;0.90;;;20.80;99.90;;;;;;4976258;28;20193;-70
2023/10/07 05:23:36;;;;;;;5.80;1.70;;;20.30;99.90;;;;;;4976567;28;20274;-69
2023/10/07 05:26:10;;;;;;;5.67;1.50;;;20.00;99.90;;;;;;4976648;28;20308;-69
2023/10/07 05:28:39;;;;;;;4.20;1.13;;;19.70;99.90;;;;;;4993320;28;20595;-69
2023/10/07 05:31:08;;;;;;;4.60;1.27;;;19.90;99.90;;;;;;4994104;28;20226;-69
2023/10/07 05:34:02;;;;;;;3.63;0.90;;;19.80;99.90;;;;;;4997139;28;20184;-69
2023/10/07 05:36:31;;;;;;;7.53;1.57;;;19.90;99.90;;;;;;4997402;28;20182;-70
2023/10/07 05:39:00;;;;;;;2.23;0.97;;;19.70;99.90;;;;;;4980137;28;20181;-68
2023/10/07 05:41:28;;;;;;;2.30;0.90;;;19.60;99.90;;;;;;4997123;28;20173;-70
2023/10/07 05:43:57;;;;;;;4.27;1.20;;;19.50;99.90;;;;;;4996725;28;20579;-69
2023/10/07 05:46:25;;;;;;;3.53;0.97;;;19.60;99.90;;;;;;4979467;28;20242;-69
2023/10/07 05:48:54;;;;;;;4.93;1.20;;;19.50;99.90;;;;;;4997147;28;20167;-68
2023/10/07 05:51:22;;;;;;;3.37;1.10;;;19.30;99.90;;;;;;4996794;28;20191;-69
2023/10/07 05:53:55;;;;;;;3.07;0.87;;;19.10;99.90;;;;;;4979622;28;20194;-69
2023/10/07 05:56:25;;;;;;;4.40;1.20;;;19.00;99.90;;;;;;4996807;28;20315;-69
2023/10/07 05:58:57;;;;;;;1.37;0.83;;;18.90;99.90;;;;;;4996683;28;20198;-69
2023/10/07 06:01:25;;;;;;;5.20;1.43;;;19.00;99.90;;;;;;4996628;28;20199;-68
2023/10/07 06:03:53;;;;;;;3.30;1.23;;;19.30;99.90;;;;;;4995719;28;20342;-68
2023/10/07 06:06:26;;;;;;;7.03;1.47;;;19.70;99.90;;;;;;4979740;28;20225;-70
2023/10/07 06:08:53;;;;;;;4.10;0.93;;;19.90;99.90;;;;;;4996623;28;20175;-69
2023/10/07 06:11:23;;;;;;;4.43;1.30;;;20.00;99.90;;;;;;4995273;28;20604;-69
2023/10/07 06:13:51;;;;;;;3.30;1.07;;;20.10;99.90;;;;;;4978695;28;20206;-69
2023/10/07 06:16:19;;;;;;;4.13;0.97;;;20.10;99.90;;;;;;4979380;28;20186;-70
2023/10/07 06:18:50;;;;;;;2.67;1.00;;;20.20;99.90;;;;;;4996290;28;20191;-69
2023/10/07 06:21:27;;;;;;;5.67;1.00;;;20.30;99.90;;;;;;4996558;28;20238;-69
2023/10/07 06:23:58;;;;;;;7.03;1.00;;;20.30;99.90;;;;;;4996332;28;20180;-70
2023/10/07 06:26:30;;;;;;;3.23;0.80;;;20.30;99.90;;;;;;4996515;28;20214;-69
2023/10/07 06:29:05;;;;;;;5.00;1.10;;;20.30;99.90;;;;;;4996244;28;20175;-70
2023/10/07 06:31:33;;;;;;;3.10;1.10;;;20.30;99.90;;;;;;4996285;28;20718;-69
2023/10/07 06:34:12;;;;;;;2.67;0.80;;;20.30;99.90;;;;;;4996408;28;20171;-69
2023/10/07 06:36:40;;;;;;;5.00;0.97;;;20.20;99.90;;;;;;4996443;28;20644;-69
2023/10/07 06:39:08;;;;;;;2.37;0.80;;;20.30;99.90;;;;;;4995994;28;20178;-68
2023/10/07 06:41:36;;;;;;;3.73;1.07;;;20.20;99.90;;;;;;4996168;28;20188;-69
2023/10/07 06:44:08;;;;;;;2.07;0.70;;;20.10;99.90;;;;;;4996228;28;20178;-69
2023/10/07 06:46:45;;;;;;;5.13;0.93;;;19.90;99.90;;;;;;4995886;28;20220;-69
2023/10/07 06:52:36;;;;;;;5.17;0.90;;;19.70;99.90;;;;;;4995618;28;20576;-69
2023/10/07 06:55:06;;;;;;;3.20;1.17;;;19.50;99.90;;;;;;4995870;28;20204;-69
2023/10/07 06:57:35;;;;;;;3.30;0.90;;;19.30;99.90;;;;;;4979071;28;20179;-69
2023/10/07 07:00:11;;;;;;;3.17;0.90;;;19.10;99.90;;;;;;4995931;28;20197;-69
2023/10/07 07:02:43;;;;;;;3.17;0.93;;;18.90;99.90;;;;;;4995795;28;20692;-69
2023/10/07 07:05:17;;;;;;;2.97;1.13;;;18.70;99.90;;;;;;4995506;28;20214;-69
2023/10/07 07:07:45;;;;;;;3.90;0.97;;;18.40;99.90;;;;;;4995686;28;20210;-69
2023/10/07 07:10:16;;;;;;;2.33;1.10;;;18.20;99.90;;;;;;4995461;28;20179;-69
2023/10/07 07:12:44;;;;;;;6.50;1.13;;;18.20;99.90;;;;;;4979268;28;20597;-69
2023/10/07 07:15:26;;;;;;;4.33;1.00;;;18.20;99.90;;;;;;4995731;28;20228;-69
2023/10/07 07:18:14;;;;;;;4.77;1.00;;;18.10;99.90;;;;;;4995479;28;20270;-69
2023/10/07 07:20:49;;;;;;;5.13;1.10;;;17.80;99.90;;;;;;4995596;28;20182;-69
2023/10/07 07:23:24;;;;;;;2.97;1.03;;;17.70;99.90;;;;;;4995193;28;20189;-70
2023/10/07 07:28:32;;;;;;;6.03;1.40;;;17.40;99.90;;;;;;4995282;28;20206;-70
2023/10/07 07:31:00;;;;;;;6.73;1.70;;;17.40;99.90;;;;;;4995039;28;20638;-69
2023/10/07 07:33:37;;;;;;;3.13;1.20;;;17.30;99.90;;;;;;4994989;28;20245;-69
2023/10/07 07:36:24;;;;;;;7.33;1.37;;;17.20;99.90;;;;;;4995416;28;20179;-68
2023/10/07 07:38:54;;;;;;;2.67;0.90;;;17.00;99.90;;;;;;4980452;28;20237;-69
2023/10/07 07:41:34;;;;;;;7.60;1.30;;;16.90;99.90;;;;;;4994098;28;20673;-69
2023/10/07 07:44:10;;;;;;;5.03;0.87;;;16.80;99.90;;;;;;4995005;28;20252;-69
2023/10/07 07:49:38;;;;;;;3.70;1.07;;;16.50;99.90;;;;;;4977971;28;20187;-68
2023/10/07 07:52:08;;;;;;;4.10;1.40;;;16.40;99.90;;;;;;4994841;28;20185;-68
2023/10/07 07:54:37;;;;;;;7.40;1.17;;;16.40;99.90;;;;;;4994065;28;20253;-69
2023/10/07 07:57:07;;;;;;;3.37;1.63;;;16.30;99.90;;;;;;4994671;28;20192;-70
2023/10/07 07:59:35;;;;;;;4.60;1.00;;;16.30;99.90;;;;;;4994467;28;20633;-69
2023/10/07 08:02:13;;;;;;;4.60;1.30;;;16.30;99.90;;;;;;4994491;28;20186;-69
2023/10/07 08:04:50;;;;;;;1.43;0.90;;;16.30;99.90;;;;;;4978986;28;20571;-70
2023/10/07 08:09:50;;;;;;;5.43;1.30;;;16.20;99.90;;;;;;4994523;28;20234;-69
2023/10/07 08:12:28;;;;;;;4.83;1.30;;;16.10;99.90;;;;;;4994613;28;20182;-69
2023/10/07 08:15:09;;;;;;;6.57;1.50;;;16.10;99.90;;;;;;4978406;28;20305;-68
2023/10/07 08:17:37;;;;;;;4.67;1.17;;;16.00;99.90;;;;;;4979230;28;20258;-69
2023/10/07 08:20:33;;;;;;;4.77;1.10;;;15.90;99.90;;;;;;4976841;28;20640;-69
2023/10/07 08:22:57;;;;;;;5.00;1.17;;;15.90;99.90;;;;;;4992579;28;20190;-69
2023/10/07 08:28:41;;;;;;;5.27;1.20;;;15.80;99.90;;;;;;4915441;29;20189;-69
2023/10/07 08:34:14;;;;;;;4.60;1.30;;;15.70;99.90;;;;;;4961222;28;20202;-69
2023/10/07 08:36:47;;;;;;;3.33;0.97;;;15.60;99.90;;;;;;4977340;28;20699;-69
2023/10/07 08:39:19;;;;;;;5.60;1.70;;;15.60;99.90;;;;;;4994126;28;20273;-69
2023/10/07 08:41:52;;;;;;;4.87;1.00;;;15.60;99.90;;;;;;4994103;28;20193;-69
2023/10/07 08:44:29;;;;;;;4.07;1.03;;;15.50;99.90;;;;;;4993979;28;20550;-69
2023/10/07 08:47:06;;;;;;;2.43;0.90;;;15.50;99.90;;;;;;4993958;28;20277;-70
2023/10/07 08:49:36;;;;;;;4.77;1.13;;;15.50;99.90;;;;;;4977655;28;20187;-69
2023/10/07 08:52:09;;;;;;;5.23;1.13;;;15.50;99.90;;;;;;4993772;28;20187;-69
2023/10/07 08:54:44;;;;;;;4.07;1.13;;;15.50;99.90;;;;;;4993954;28;20194;-69
2023/10/07 08:57:19;;;;;;;3.07;1.50;;;15.50;99.90;;;;;;4993956;28;20667;-70
2023/10/07 08:59:49;;;;;;;4.03;1.30;;;15.40;99.90;;;;;;4993836;28;20174;-70
2023/10/07 09:02:37;;;;;;;4.47;1.13;;;15.40;99.90;;;;;;4993756;28;20190;-69
2023/10/07 09:05:15;;;;;;;5.37;1.27;;;15.30;99.90;;;;;;4992807;28;20194;-69
2023/10/07 09:07:48;;;;;;;3.07;1.10;;;15.30;99.90;;;;;;4993442;28;20217;-69
2023/10/07 09:10:17;;;;;;;2.80;1.33;;;15.40;99.90;;;;;;4976457;28;20273;-69
2023/10/07 09:12:51;;;;;;;2.73;1.20;;;15.40;99.90;;;;;;4993563;28;20198;-70
2023/10/07 09:15:26;;;;;;;2.90;1.37;;;15.40;99.90;;;;;;4976497;28;20194;-70
2023/10/07 09:18:03;;;;;;;5.67;1.60;;;15.50;99.90;;;;;;4993984;28;20652;-70
2023/10/07 09:20:35;;;;;;;6.90;1.90;;;15.60;99.90;;;;;;4993482;28;20186;-70
2023/10/07 09:23:14;;;;;;;5.30;1.70;;;15.60;99.90;;;;;;4993680;28;20177;-70
2023/10/07 09:26:05;;;;;;;7.53;1.70;;;15.60;99.90;;;;;;4976228;28;20524;-70
2023/10/07 09:28:38;;;;;;;6.20;2.30;;;15.60;99.90;;;;;;4979632;28;20714;-70
2023/10/07 09:31:08;;;;;;;5.90;1.63;;;15.60;99.90;;;;;;4993500;28;20229;-68
2023/10/07 09:33:41;;;;;;;2.50;1.70;;;15.50;99.90;;;;;;4993169;28;20175;-68
2023/10/07 09:36:24;;;;;;;5.10;2.10;;;15.50;99.90;;;;;;4993272;28;20194;-68
2023/10/07 09:41:39;;;;;;;5.40;2.00;;;15.50;99.90;;;;;;4993990;28;20302;-68
2023/10/07 09:44:23;;;;;;;6.03;1.63;;;15.50;99.90;;;;;;4992538;28;20664;-68
2023/10/07 09:46:52;;;;;;;5.93;2.10;;;15.50;99.90;;;;;;4993351;28;20242;-68
2023/10/07 09:49:25;;;;;;;5.03;1.53;;;15.60;99.90;;;;;;4993149;28;20190;-68
2023/10/07 09:52:15;;;;;;;4.67;1.80;;;15.50;99.90;;;;;;4976855;28;20174;-68
2023/10/07 09:55:22;;;;;;;7.97;1.80;;;15.50;99.90;;;;;;4975977;28;20182;-68
2023/10/07 09:58:24;;;;;;;5.17;1.70;;;15.50;99.90;;;;;;4993258;28;20178;-69
2023/10/07 10:01:07;;;;;;;6.47;2.10;;;15.40;99.90;;;;;;4993576;28;20206;-69
2023/10/07 10:04:11;;;;;;;4.80;1.40;;;15.40;99.90;;;;;;4976985;28;20174;-69
2023/10/07 10:06:57;;;;;;;7.33;2.00;;;15.30;99.90;;;;;;4982010;28;20214;-68
2023/10/07 10:09:42;;;;;;;7.33;2.00;;;15.10;99.90;;;;;;4993163;28;20186;-69
2023/10/07 10:12:18;;;;;;;9.07;2.17;;;15.10;99.90;;;;;;4992915;28;20194;-69
2023/10/07 10:17:40;;;;;;;8.17;2.17;;;15.10;99.90;;;;;;4995367;28;20205;-68
2023/10/07 10:20:18;;;;;;;6.93;1.90;;;15.00;99.90;;;;;;4979357;28;20544;-70
2023/10/07 10:23:00;;;;;;;8.17;1.90;;;14.80;99.90;;;;;;4978109;28;20186;-69
2023/10/07 10:25:37;;;;;;;8.53;2.17;;;14.70;99.90;;;;;;4963131;28;20253;-69
2023/10/07 10:28:08;;;;;;;4.77;1.80;;;14.60;99.90;;;;;;4996574;28;20241;-69
2023/10/07 10:30:53;;;;;;;6.80;2.20;;;14.60;99.90;;;;;;4996187;28;20232;-70
2023/10/07 10:33:28;;;;;;;5.67;2.00;;;14.50;99.90;;;;;;4978796;28;20602;-69
2023/10/07 10:35:57;;;;;;;4.93;1.97;;;14.40;99.90;;;;;;4996600;28;20189;-69
2023/10/07 10:38:45;;;;;;;4.47;2.10;;;14.40;99.90;;;;;;4996538;28;20170;-69
2023/10/07 10:41:14;;;;;;;7.47;2.20;;;14.30;99.90;;;;;;4980206;28;20171;-69
2023/10/07 10:43:41;;;;;;;6.40;2.20;;;14.30;99.90;;;;;;4996535;28;20194;-71
2023/10/07 10:46:09;;;;;;;4.30;2.30;;;14.20;99.90;;;;;;4996061;28;20221;-69
2023/10/07 10:48:38;;;;;;;4.87;2.10;;;14.20;99.90;;;;;;4979203;28;20190;-69
2023/10/07 10:51:07;;;;;;;4.17;2.10;;;14.10;99.90;;;;;;4996209;28;20189;-69
2023/10/07 10:53:41;;;;;;;5.97;2.63;;;14.10;99.90;;;;;;4995932;28;20191;-70
2023/10/07 10:56:10;;;;;;;5.50;2.57;;;14.00;99.90;;;;;;4978579;28;20185;-69
2023/10/07 10:58:39;;;;;;;5.43;2.50;;;14.00;99.90;;;;;;4979147;28;20183;-70
2023/10/07 11:01:07;;;;;;;7.83;2.80;;;13.90;99.90;;;;;;4962857;28;20190;-68
2023/10/07 11:03:39;;;;;;;4.03;1.97;;;13.90;99.90;;;;;;4978781;28;20183;-69
2023/10/07 11:06:09;;;;;;;7.87;2.83;;;13.90;99.90;;;;;;4996025;28;20216;-69
2023/10/07 11:08:37;;;;;;;6.40;2.33;;;13.90;99.90;;;;;;4995587;28;20190;-68
2023/10/07 11:11:10;;;;;;;4.30;2.10;;;13.90;99.90;;;;;;4978759;28;20190;-70
2023/10/07 11:13:44;;;;;;;6.13;2.67;;;13.90;99.90;;;;;;4995239;28;20190;-67
2023/10/07 11:16:11;;;;;;;11.07;3.23;;;13.80;99.90;;;;;;4995641;28;20186;-68
2023/10/07 11:18:45;;;;;;;6.60;2.67;;;13.80;99.90;;;;;;4995649;28;20636;-69
2023/10/07 11:21:17;;;;;;;4.47;2.97;;;13.80;99.90;;;;;;4995484;28;20240;-69
2023/10/07 11:23:54;;;;;;;3.90;2.40;;;13.80;99.90;;;;;;4995577;28;20308;-69
2023/10/07 11:26:26;;;;;;;7.27;3.27;;;13.70;99.90;;;;;;4995652;28;20252;-68
2023/10/07 11:28:56;;;;;;;9.67;3.00;;;13.60;99.90;;;;;;4994448;28;20197;-70
2023/10/07 11:31:30;;;;;;;7.60;3.23;;;13.60;99.90;;;;;;4995253;28;20833;-69
2023/10/07 11:34:04;;;;;;;10.43;3.63;;;13.60;99.90;;;;;;4995302;28;20621;-69
2023/10/07 11:36:44;;;;;;;5.33;2.93;;;13.60;99.90;;;;;;4995484;28;20569;-69
2023/10/07 11:39:13;;;;;;;6.97;3.40;;;13.60;99.90;;;;;;4995305;28;20183;-69
2023/10/07 11:41:44;;;;;;;9.03;5.00;;;13.50;99.90;;;;;;4995174;28;20182;-68
2023/10/07 11:44:16;;;;;;;10.80;4.83;;;13.50;99.90;;;;;;4991361;28;20280;-70
2023/10/07 11:46:45;;;;;;;14.50;5.07;;;13.50;99.90;;;;;;4995232;28;20216;-69
2023/10/07 11:49:15;;;;;;;8.17;4.37;;;13.50;99.90;;;;;;4977770;28;20245;-70
2023/10/07 11:51:44;;;;;;;8.97;4.70;;;13.50;99.90;;;;;;4995041;28;20178;-69
2023/10/07 11:54:12;;;;;;;9.23;4.47;;;13.40;99.90;;;;;;4994930;28;20610;-70
2023/10/07 11:56:40;;;;;;;14.17;4.77;;;13.40;99.90;;;;;;4995023;28;20210;-71
2023/10/07 11:59:07;;;;;;;14.67;5.07;;;13.40;99.90;;;;;;4994710;28;20175;-70
2023/10/07 12:01:34;;;;;;;9.40;4.30;;;13.50;99.90;;;;;;4994864;28;20220;-70
2023/10/07 12:04:05;;;;;;;11.03;4.43;;;13.50;99.90;;;;;;4994780;28;20201;-69
2023/10/07 12:06:32;;;;;;;11.27;4.33;;;13.50;99.90;;;;;;4994860;28;20218;-68
2023/10/07 12:09:06;;;;;;;11.43;5.20;;;13.40;99.90;;;;;;4994650;28;20176;-69
2023/10/07 12:11:33;;;;;;;12.47;4.33;;;13.40;99.90;;;;;;4994775;28;20194;-69
2023/10/07 12:14:01;;;;;;;10.03;4.20;;;13.40;99.90;;;;;;4994679;28;20182;-69
2023/10/07 12:16:32;;;;;;;7.90;3.70;;;13.30;99.90;;;;;;4994693;28;20696;-69
2023/10/07 12:19:00;;;;;;;11.27;4.20;;;13.30;99.90;;;;;;4994303;28;20239;-69
2023/10/07 12:21:28;;;;;;;10.33;4.77;;;13.20;99.90;;;;;;4993679;28;20202;-69
2023/10/07 12:23:56;;;;;;;8.63;4.10;;;13.20;99.90;;;;;;4994383;28;20185;-69
2023/10/07 12:26:23;;;;;;;11.23;4.27;;;13.20;99.90;;;;;;4977025;28;20222;-69
2023/10/07 12:28:53;;;;;;;7.43;3.77;;;13.20;99.90;;;;;;4994561;28;20269;-70
2023/10/07 12:31:23;;;;;;;10.10;4.23;;;13.20;99.90;;;;;;4994041;28;20233;-69
2023/10/07 12:33:55;;;;;;;10.53;4.03;;;13.20;99.90;;;;;;4994286;28;20197;-69
2023/10/07 12:36:22;;;;;;;12.37;4.80;;;13.10;99.90;;;;;;4977774;28;20296;-69
2023/10/07 12:38:49;;;;;;;7.77;3.83;;;13.10;99.90;;;;;;4994232;28;20258;-70
2023/10/07 12:41:17;;;;;;;10.30;4.33;;;13.10;99.90;;;;;;4994198;28;20181;-68
2023/10/07 12:43:47;;;;;;;11.43;4.03;;;13.10;99.90;;;;;;4993174;28;20184;-69
2023/10/07 12:46:14;;;;;;;8.87;3.67;;;13.10;99.90;;;;;;4994043;28;20224;-69
2023/10/07 12:48:49;;;;;;;5.37;3.70;;;13.10;99.90;;;;;;4993979;28;20181;-70
2023/10/07 12:51:18;;;;;;;10.37;4.20;;;13.00;99.90;;;;;;4994112;28;20263;-69
2023/10/07 12:53:45;;;;;;;7.87;4.40;;;12.90;99.90;;;;;;4987455;28;20173;-68
2023/10/07 12:56:14;;;;;;;7.47;4.27;;;12.80;99.90;;;;;;4991949;28;20185;-69
2023/10/07 12:58:45;;;;;;;9.13;4.13;;;12.70;99.90;;;;;;4985172;28;20194;-70
2023/10/07 13:01:13;;;;;;;10.80;4.43;;;12.60;99.90;;;;;;4988742;28;20224;-70
2023/10/07 13:03:44;;;;;;;8.97;4.10;;;12.50;99.90;;;;;;4989459;28;20196;-71
2023/10/07 13:06:19;;;;;;;8.60;3.83;;;12.50;99.90;;;;;;4993347;28;20287;-68
2023/10/07 13:08:47;;;;;;;10.67;4.60;;;12.50;99.90;;;;;;4993056;28;20220;-70
2023/10/07 13:11:15;;;;;;;11.13;3.83;;;12.40;99.90;;;;;;4993311;28;20644;-72
2023/10/07 13:13:46;;;;;;;13.67;3.97;;;12.40;99.90;;;;;;4977714;28;20185;-69
2023/10/07 13:16:17;;;;;;;7.07;4.00;;;12.30;99.90;;;;;;4975029;28;20212;-69
2023/10/07 13:18:45;;;;;;;9.87;3.80;;;12.30;99.90;;;;;;4992611;28;20208;-69
2023/10/07 13:21:18;;;;;;;8.40;3.63;;;12.20;99.90;;;;;;4987814;28;20176;-70
2023/10/07 13:23:49;;;;;;;6.47;3.50;;;12.20;99.90;;;;;;4986365;28;20208;-69
2023/10/07 13:26:19;;;;;;;8.90;3.40;;;12.20;99.90;;;;;;4984585;28;20299;-71
2023/10/07 13:28:48;;;;;;;9.10;3.93;;;12.20;99.90;;;;;;4975905;28;20212;-69
2023/10/07 13:31:17;;;;;;;7.90;3.93;;;12.20;99.90;;;;;;4993184;28;20233;-69
2023/10/07 13:33:46;;;;;;;7.03;3.77;;;12.10;99.90;;;;;;4968413;28;20663;-69
2023/10/07 13:36:13;;;;;;;8.73;4.20;;;12.10;99.90;;;;;;4976200;28;20675;-68
2023/10/07 13:38:41;;;;;;;9.67;3.77;;;12.10;99.90;;;;;;4973728;28;20192;-70
2023/10/07 13:41:08;;;;;;;14.83;4.37;;;12.00;99.90;;;;;;4974192;28;20185;-71
2023/10/07 13:43:36;;;;;;;8.43;3.30;;;12.00;99.90;;;;;;4988974;28;20231;-69
2023/10/07 13:46:13;;;;;;;6.10;3.33;;;12.00;99.90;;;;;;4993496;28;20216;-72
2023/10/07 13:48:43;;;;;;;11.57;3.87;;;12.00;99.90;;;;;;4993069;28;20184;-69
2023/10/07 13:51:12;;;;;;;6.17;2.93;;;12.00;99.90;;;;;;4992243;28;20208;-68
2023/10/07 13:57:02;;;;;;;6.80;3.60;;;11.90;99.90;;;;;;4896784;29;20184;-71
2023/10/07 13:59:29;;;;;;;7.93;3.30;;;12.00;99.90;;;;;;4880466;29;20324;-68
2023/10/07 14:02:00;;;;;;;7.27;3.27;;;12.00;99.90;;;;;;4945992;28;20280;-70
2023/10/07 14:04:29;;;;;;;8.93;3.03;;;12.00;99.90;;;;;;4977659;28;20203;-69
2023/10/07 14:07:00;;;;;;;9.80;3.80;;;12.00;99.90;;;;;;4977485;28;20215;-69
2023/10/07 14:09:29;;;;;;;7.97;3.17;;;12.00;99.90;;;;;;4960744;28;20633;-73
2023/10/07 14:11:56;;;;;;;7.90;3.00;;;12.00;99.90;;;;;;4959795;28;20591;-73
2023/10/07 14:14:27;;;;;;;7.97;3.17;;;12.00;99.90;;;;;;4977474;28;20261;-71
2023/10/07 14:17:00;;;;;;;8.37;3.13;;;12.00;99.90;;;;;;4959945;28;20190;-71
2023/10/07 14:19:29;;;;;;;6.33;2.60;;;12.10;99.90;;;;;;4978402;28;20192;-72
2023/10/07 14:22:00;;;;;;;7.13;2.63;;;12.20;99.90;;;;;;4977178;28;20284;-72